createdAt,value
2018-05-06T06:53:56.627Z,5.57
2018-05-06T06:56:25.644Z,5.87
2018-05-06T06:58:53.875Z,5.40
2018-05-06T07:01:22.143Z,4.77
2018-05-06T07:03:50.411Z,4.20
2018-05-06T07:06:18.612Z,4.17
2018-05-06T07:08:46.888Z,4.00
2018-05-06T07:11:15.135Z,3.60
2018-05-06T07:13:44.151Z,3.20
2018-05-06T07:16:12.404Z,3.60
2018-05-06T07:18:40.667Z,2.90
2018-05-06T07:21:08.896Z,3.10
2018-05-06T07:23:37.156Z,2.80
2018-05-06T07:26:05.348Z,3.10
2018-05-06T07:28:34.422Z,2.57
2018-05-06T07:31:02.872Z,2.33
2018-05-06T07:33:32.270Z,2.40
2018-05-06T07:36:00.459Z,2.50
2018-05-06T07:38:28.760Z,2.30
2018-05-06T07:40:56.991Z,2.60
2018-05-06T07:43:25.179Z,2.37
2018-05-06T07:50:49.255Z,2.40
2018-05-06T07:53:17.591Z,2.63
2018-05-06T07:55:45.863Z,2.03
2018-05-06T08:00:42.314Z,2.27
2018-05-06T08:03:11.558Z,2.10
2018-05-06T08:05:40.599Z,2.30
2018-05-06T08:08:08.798Z,2.00
2018-05-06T08:10:37.854Z,2.20
2018-05-06T08:13:06.265Z,1.77
2018-05-06T08:15:34.472Z,2.07
2018-05-06T08:18:02.728Z,1.63
2018-05-06T08:20:30.960Z,1.67
2018-05-06T08:22:59.203Z,1.70
2018-05-06T08:30:23.064Z,1.77
2018-05-06T08:32:51.308Z,1.67
2018-05-06T08:35:19.603Z,1.57
2018-05-06T12:43:55.158Z,2.10
2018-05-06T13:06:10.018Z,1.83
2018-05-06T13:08:38.249Z,2.00
